createdAt,value
2018-05-21T00:00:06.309Z,102368.34
2018-05-21T00:00:28.513Z,102372.74
2018-05-21T00:00:52.970Z,102370.11
2018-05-21T00:01:14.489Z,102369.19
2018-05-21T00:01:36.572Z,102370.50
2018-05-21T00:01:58.113Z,102371.81
2018-05-21T00:02:19.635Z,102373.13
2018-05-21T00:02:41.144Z,102373.13
2018-05-21T00:03:02.668Z,102369.11
2018-05-21T00:03:24.203Z,102374.83
2018-05-21T00:03:45.716Z,102375.30
2018-05-21T00:04:07.269Z,102369.11
2018-05-21T00:04:28.787Z,102369.58
2018-05-21T00:04:50.549Z,102372.13
2018-05-21T00:05:12.063Z,102375.22
2018-05-21T00:05:33.580Z,102365.94
2018-05-21T00:05:55.109Z,102367.26
2018-05-21T00:06:16.623Z,102368.19
2018-05-21T00:06:38.153Z,102364.25
2018-05-21T00:06:59.676Z,102370.42
2018-05-21T00:07:21.187Z,102362.39
2018-05-21T00:07:42.699Z,102360.23
2018-05-21T00:08:04.208Z,102364.17
2018-05-21T00:08:25.730Z,102364.63
2018-05-21T00:08:47.245Z,102364.17
2018-05-21T00:09:08.799Z,102361.92
2018-05-21T00:09:30.320Z,102365.41
2018-05-21T00:09:51.841Z,102365.87
2018-05-21T00:10:13.369Z,102361.39
2018-05-21T00:10:34.895Z,102363.62
2018-05-21T00:10:56.404Z,102365.79
2018-05-21T00:11:17.912Z,102357.45
2018-05-21T00:11:39.439Z,102357.45
2018-05-21T00:12:00.943Z,102362.23
2018-05-21T00:12:22.457Z,102363.09
2018-05-21T00:12:43.976Z,102364.40
2018-05-21T00:13:05.500Z,102364.94
2018-05-21T00:13:27.041Z,102362.78
2018-05-21T00:13:48.572Z,102361.00
2018-05-21T00:14:10.119Z,102364.02
2018-05-21T00:14:31.641Z,102358.30
2018-05-21T00:14:53.157Z,102361.47
2018-05-21T00:15:14.678Z,102355.28
2018-05-21T00:15:36.197Z,102359.30
2018-05-21T00:15:57.720Z,102359.30
2018-05-21T00:16:19.242Z,102361.08
2018-05-21T00:16:40.826Z,102359.30
2018-05-21T00:17:02.306Z,102358.14
2018-05-21T00:17:24.776Z,102363.01
2018-05-21T00:17:55.097Z,102359.14
2018-05-21T00:18:16.624Z,102368.41
2018-05-21T00:18:38.208Z,102362.70
2018-05-21T00:18:59.811Z,102359.22
2018-05-21T00:19:21.366Z,102360.92
2018-05-21T00:19:42.875Z,102364.02
2018-05-21T00:20:04.406Z,102364.94
2018-05-21T00:20:25.926Z,102361.47
2018-05-21T00:20:47.436Z,102360.23
2018-05-21T00:21:08.951Z,102360.69
2018-05-21T00:21:30.471Z,102357.22
2018-05-21T00:21:51.980Z,102357.59
2018-05-21T00:22:13.508Z,102358.84
2018-05-21T00:22:35.043Z,102355.90
2018-05-21T00:22:56.574Z,102353.27
2018-05-21T00:23:18.090Z,102358.91
2018-05-21T00:23:39.604Z,102356.28
2018-05-21T00:24:01.132Z,102357.29
2018-05-21T00:24:22.704Z,102355.44
2018-05-21T00:24:44.227Z,102358.52
2018-05-21T00:25:05.759Z,102352.42
2018-05-21T00:25:27.291Z,102362.08
2018-05-21T00:25:48.901Z,102355.13
2018-05-21T00:26:10.415Z,102350.72
2018-05-21T00:26:31.934Z,102352.96
2018-05-21T00:26:53.445Z,102349.88
2018-05-21T00:27:14.974Z,102352.96
2018-05-21T00:27:36.506Z,102352.58
2018-05-21T00:27:58.025Z,102350.03
2018-05-21T00:28:19.539Z,102351.27
2018-05-21T00:28:41.077Z,102353.11
2018-05-21T00:29:02.605Z,102353.66
2018-05-21T00:29:24.125Z,102354.97
2018-05-21T00:29:45.652Z,102348.41
2018-05-21T00:30:07.185Z,102351.14
2018-05-21T00:30:28.707Z,102353.77
2018-05-21T00:30:50.224Z,102349.05
2018-05-21T00:31:11.750Z,102345.89
2018-05-21T00:31:33.260Z,102345.96
2018-05-21T00:31:55.014Z,102349.20
2018-05-21T00:32:16.538Z,102348.20
2018-05-21T00:32:38.092Z,102348.67
2018-05-21T00:32:59.617Z,102354.77
2018-05-21T00:33:21.137Z,102348.59
2018-05-21T00:33:42.665Z,102354.00
2018-05-21T00:34:04.196Z,102354.84
2018-05-21T00:34:25.743Z,102350.37
2018-05-21T00:34:47.267Z,102354.08
2018-05-21T00:35:08.785Z,102354.46
2018-05-21T00:35:30.309Z,102351.14
2018-05-21T00:35:51.835Z,102352.37
2018-05-21T00:36:13.361Z,102352.37
2018-05-21T00:36:34.945Z,102352.91
2018-05-21T00:36:56.462Z,102351.98
2018-05-21T00:37:17.980Z,102353.30
2018-05-21T00:37:39.495Z,102355.08
2018-05-21T00:38:01.068Z,102356.86
2018-05-21T00:38:22.583Z,102349.83
2018-05-21T00:38:44.108Z,102347.73
2018-05-21T00:39:05.628Z,102350.29
2018-05-21T00:39:27.163Z,102347.73
2018-05-21T00:39:48.673Z,102351.22
2018-05-21T00:40:10.190Z,102348.13
2018-05-21T00:40:31.783Z,102345.88
2018-05-21T00:40:53.301Z,102348.59
2018-05-21T00:41:14.822Z,102352.53
2018-05-21T00:41:36.349Z,102345.57
2018-05-21T00:41:57.869Z,102350.44
2018-05-21T00:42:19.380Z,102345.95
2018-05-21T00:42:40.888Z,102348.20
2018-05-21T00:43:02.408Z,102348.20
2018-05-21T00:43:23.931Z,102345.57
2018-05-21T00:43:45.438Z,102346.11
2018-05-21T00:44:06.955Z,102346.11
2018-05-21T00:44:28.508Z,102345.27
2018-05-21T00:44:50.041Z,102343.95
2018-05-21T00:45:11.580Z,102345.27
2018-05-21T00:45:33.104Z,102343.09
2018-05-21T00:45:54.615Z,102347.58
2018-05-21T00:46:16.180Z,102344.02
2018-05-21T00:46:37.705Z,102340.47
2018-05-21T00:46:59.224Z,102337.07
2018-05-21T00:47:20.742Z,102340.16
2018-05-21T00:47:42.287Z,102340.55
2018-05-21T00:48:03.804Z,102340.70
2018-05-21T00:48:25.344Z,102343.71
2018-05-21T00:48:46.916Z,102338.46
2018-05-21T00:49:08.394Z,102334.83
2018-05-21T00:49:29.964Z,102339.00
2018-05-21T00:49:51.504Z,102337.61
2018-05-21T00:50:13.035Z,102339.39
2018-05-21T00:50:34.560Z,102339.31
2018-05-21T00:50:56.082Z,102331.50
2018-05-21T00:51:17.619Z,102335.06
2018-05-21T00:51:39.127Z,102332.81
2018-05-21T00:52:00.635Z,102332.81
2018-05-21T00:52:22.155Z,102328.87
2018-05-21T00:52:43.677Z,102335.45
2018-05-21T00:53:05.204Z,102334.20
2018-05-21T00:53:26.746Z,102328.48
2018-05-21T00:53:48.283Z,102331.19
2018-05-21T00:54:09.832Z,102331.97
2018-05-21T00:54:31.423Z,102333.82
2018-05-21T00:54:52.954Z,102332.97
2018-05-21T00:55:14.470Z,102334.28
2018-05-21T00:55:35.996Z,102331.66
2018-05-21T00:55:57.523Z,102333.44
2018-05-21T00:56:19.043Z,102336.91
2018-05-21T00:56:40.577Z,102334.28
2018-05-21T00:57:02.106Z,102332.12
2018-05-21T00:57:23.728Z,102335.78
2018-05-21T00:57:45.256Z,102336.60
2018-05-21T00:58:06.784Z,102335.67
2018-05-21T00:58:28.299Z,102333.97
2018-05-21T00:58:49.848Z,102331.34
2018-05-21T00:59:11.382Z,102332.66
2018-05-21T00:59:32.917Z,102336.14
2018-05-21T00:59:54.435Z,102333.05
2018-05-21T01:00:15.946Z,102339.61
2018-05-21T01:00:37.470Z,102335.02
2018-05-21T01:00:59.005Z,102335.78
2018-05-21T01:01:20.539Z,102341.50
2018-05-21T01:01:42.088Z,102335.02
2018-05-21T01:02:03.620Z,102335.94
2018-05-21T01:02:25.155Z,102333.31
2018-05-21T01:02:46.700Z,102335.09
2018-05-21T01:03:08.410Z,102336.78
2018-05-21T01:03:29.943Z,102335.40
2018-05-21T01:03:51.475Z,102337.25
2018-05-21T01:04:12.986Z,102331.07
2018-05-21T01:04:34.548Z,102334.16
2018-05-21T01:04:56.062Z,102329.22
2018-05-21T01:05:17.592Z,102332.00
2018-05-21T01:05:39.119Z,102329.83
2018-05-21T01:06:00.643Z,102335.94
2018-05-21T01:06:22.172Z,102331.15
2018-05-21T01:06:43.698Z,102335.55
2018-05-21T01:07:05.223Z,102332.07
2018-05-21T01:07:27.989Z,102325.04
2018-05-21T01:07:49.527Z,102328.13
2018-05-21T01:08:11.180Z,102326.35
2018-05-21T01:08:32.707Z,102330.30
2018-05-21T01:08:54.231Z,102332.07
2018-05-21T01:09:15.743Z,102326.35
2018-05-21T01:09:37.280Z,102331.22
2018-05-21T01:09:58.821Z,102331.69
2018-05-21T01:10:20.393Z,102329.91
2018-05-21T01:10:41.908Z,102334.77
2018-05-21T01:11:03.418Z,102331.30
2018-05-21T01:11:24.927Z,102332.61
2018-05-21T01:11:46.450Z,102326.89
2018-05-21T01:12:07.987Z,102334.77
2018-05-21T01:12:29.511Z,102335.63
2018-05-21T01:12:51.063Z,102326.43
2018-05-21T01:13:12.599Z,102332.14
2018-05-21T01:13:34.138Z,102336.55
2018-05-21T01:13:55.664Z,102327.36
2018-05-21T01:14:17.431Z,102333.08
2018-05-21T01:14:39.031Z,102330.06
2018-05-21T01:15:00.807Z,102332.69
2018-05-21T01:15:22.373Z,102330.52
2018-05-21T01:15:44.258Z,102327.89
2018-05-21T01:16:05.787Z,102330.91
2018-05-21T01:16:27.303Z,102326.58
2018-05-21T01:16:48.808Z,102327.51
2018-05-21T01:17:10.326Z,102332.69
2018-05-21T01:17:31.854Z,102333.61
2018-05-21T01:17:53.380Z,102331.45
2018-05-21T01:18:15.024Z,102336.70
2018-05-21T01:18:36.531Z,102329.28
2018-05-21T01:18:58.065Z,102327.51
2018-05-21T01:19:19.983Z,102327.97
2018-05-21T01:19:41.515Z,102329.67
2018-05-21T01:20:03.052Z,102333.15
2018-05-21T01:20:24.562Z,102331.91
2018-05-21T01:20:46.083Z,102330.59
2018-05-21T01:21:07.591Z,102330.21
2018-05-21T01:21:29.112Z,102329.75
2018-05-21T01:21:50.638Z,102330.21
2018-05-21T01:22:12.158Z,102330.59
2018-05-21T01:22:33.719Z,102331.37
2018-05-21T01:22:55.288Z,102328.13
2018-05-21T01:23:16.818Z,102327.12
2018-05-21T01:23:41.091Z,102324.04
2018-05-21T01:24:02.632Z,102326.66
2018-05-21T01:24:24.144Z,102325.35
2018-05-21T01:24:45.687Z,102321.22
2018-05-21T01:25:07.297Z,102321.61
2018-05-21T01:25:28.810Z,102322.73
2018-05-21T01:25:50.340Z,102320.84
2018-05-21T01:26:11.889Z,102324.31
2018-05-21T01:26:33.404Z,102321.80
2018-05-21T01:26:54.918Z,102322.15
2018-05-21T01:27:16.433Z,102320.84
2018-05-21T01:27:38.072Z,102326.02
2018-05-21T01:27:59.711Z,102315.23
2018-05-21T01:28:21.232Z,102320.56
2018-05-21T01:28:42.747Z,102326.66
2018-05-21T01:29:04.263Z,102324.50
2018-05-21T01:29:25.766Z,102321.48
2018-05-21T01:29:47.310Z,102326.20
2018-05-21T01:30:08.822Z,102320.48
2018-05-21T01:30:30.419Z,102316.16
2018-05-21T01:30:51.933Z,102316.55
2018-05-21T01:31:13.460Z,102315.70
2018-05-21T01:31:34.991Z,102317.47
2018-05-21T01:31:56.503Z,102320.17
2018-05-21T01:32:18.828Z,102317.55
2018-05-21T01:32:40.387Z,102319.25
2018-05-21T01:33:01.915Z,102316.70
2018-05-21T01:33:23.523Z,102321.02
2018-05-21T01:33:45.040Z,102321.95
2018-05-21T01:34:06.555Z,102313.61
2018-05-21T01:34:28.185Z,102318.01
2018-05-21T01:34:49.720Z,102316.62
2018-05-21T01:35:11.263Z,102314.91
2018-05-21T01:35:32.777Z,102316.62
2018-05-21T01:35:54.300Z,102315.77
2018-05-21T01:36:15.833Z,102312.36
2018-05-21T01:36:37.454Z,102315.84
2018-05-21T01:36:59.068Z,102312.22
2018-05-21T01:37:20.599Z,102313.61
2018-05-21T01:37:42.102Z,102321.95
2018-05-21T01:38:03.626Z,102319.78
2018-05-21T01:38:25.155Z,102318.09
2018-05-21T01:38:46.666Z,102314.06
2018-05-21T01:39:08.179Z,102316.77
2018-05-21T01:39:29.704Z,102313.61
2018-05-21T01:39:51.296Z,102315.84
2018-05-21T01:40:12.816Z,102323.34
2018-05-21T01:40:34.360Z,102315.84
2018-05-21T01:40:55.875Z,102319.78
2018-05-21T01:41:17.429Z,102321.95
2018-05-21T01:41:39.150Z,102316.77
2018-05-21T01:42:00.654Z,102315.38
2018-05-21T01:42:22.190Z,102317.23
2018-05-21T01:42:43.698Z,102314.99
2018-05-21T01:43:05.230Z,102311.91
2018-05-21T01:43:26.753Z,102316.31
2018-05-21T01:43:48.285Z,102320.33
2018-05-21T01:44:09.799Z,102314.61
2018-05-21T01:44:31.321Z,102312.83
2018-05-21T01:44:52.888Z,102318.94
2018-05-21T01:45:14.405Z,102313.22
2018-05-21T01:45:35.930Z,102309.73
2018-05-21T01:45:57.456Z,102312.83
2018-05-21T01:46:18.962Z,102309.73
2018-05-21T01:46:40.492Z,102313.22
2018-05-21T01:47:02.020Z,102312.75
2018-05-21T01:47:23.529Z,102310.59
2018-05-21T01:47:45.057Z,102307.50
2018-05-21T01:48:06.593Z,102309.73
2018-05-21T01:48:28.128Z,102310.20
2018-05-21T01:48:49.679Z,102308.34
2018-05-21T01:49:11.203Z,102308.42
2018-05-21T01:49:32.742Z,102306.27
2018-05-21T01:49:54.291Z,102310.59
2018-05-21T01:50:15.897Z,102306.19
2018-05-21T01:50:37.429Z,102311.98
2018-05-21T01:51:00.141Z,102310.73
2018-05-21T01:51:21.666Z,102307.27
2018-05-21T01:51:43.171Z,102306.34
2018-05-21T01:52:04.682Z,102306.80
2018-05-21T01:52:26.303Z,102309.81
2018-05-21T01:52:47.832Z,102311.59
2018-05-21T01:53:09.365Z,102308.96
2018-05-21T01:53:30.897Z,102308.11
2018-05-21T01:53:52.431Z,102307.19
2018-05-21T01:54:13.984Z,102309.35
2018-05-21T01:54:35.509Z,102308.50
2018-05-21T01:54:57.047Z,102305.48
2018-05-21T01:55:18.559Z,102303.32
2018-05-21T01:55:40.075Z,102308.11
2018-05-21T01:56:01.594Z,102308.11
2018-05-21T01:56:23.119Z,102303.32
2018-05-21T01:56:44.635Z,102299.38
2018-05-21T01:57:06.152Z,102304.09
2018-05-21T01:57:27.700Z,102305.09
2018-05-21T01:57:49.240Z,102306.34
2018-05-21T01:58:10.768Z,102304.25
2018-05-21T01:58:32.285Z,102304.17
2018-05-21T01:58:53.816Z,102302.47
2018-05-21T01:59:15.342Z,102302.01
2018-05-21T01:59:36.856Z,102306.88
2018-05-21T01:59:58.488Z,102308.66
2018-05-21T02:00:20.019Z,102302.94
2018-05-21T02:00:41.536Z,102303.86
2018-05-21T02:01:03.068Z,102305.64
2018-05-21T02:01:24.583Z,102306.41
2018-05-21T02:01:46.188Z,102304.25
2018-05-21T02:02:07.642Z,102307.80
2018-05-21T02:02:29.182Z,102301.77
2018-05-21T02:02:50.700Z,102304.86
2018-05-21T02:03:12.229Z,102305.25
2018-05-21T02:03:33.772Z,102301.77
2018-05-21T02:03:55.305Z,102303.55
2018-05-21T02:04:16.821Z,102305.25
2018-05-21T02:04:38.332Z,102303.94
2018-05-21T02:04:59.878Z,102304.47
2018-05-21T02:05:21.435Z,102298.83
2018-05-21T02:05:42.967Z,102300.45
2018-05-21T02:06:04.867Z,102302.77
2018-05-21T02:06:26.376Z,102310.27
2018-05-21T02:06:47.882Z,102308.03
2018-05-21T02:07:09.387Z,102305.86
2018-05-21T02:07:30.901Z,102301.53
2018-05-21T02:07:53.050Z,102306.71
2018-05-21T02:08:14.593Z,102306.71
2018-05-21T02:08:36.191Z,102306.33
2018-05-21T02:08:57.673Z,102307.64
2018-05-21T02:09:19.202Z,102306.71
2018-05-21T02:09:40.715Z,102304.55
2018-05-21T02:10:02.268Z,102303.70
2018-05-21T02:10:23.812Z,102310.66
2018-05-21T02:10:45.345Z,102301.00
2018-05-21T02:11:06.862Z,102304.94
2018-05-21T02:11:28.411Z,102301.92
2018-05-21T02:11:49.937Z,102309.34
2018-05-21T02:12:11.468Z,102306.79
2018-05-21T02:12:32.998Z,102306.79
2018-05-21T02:12:54.512Z,102300.76
2018-05-21T02:13:16.033Z,102301.69
2018-05-21T02:13:37.565Z,102300.52
2018-05-21T02:13:59.095Z,102305.70
2018-05-21T02:14:20.635Z,102309.87
2018-05-21T02:14:42.147Z,102303.80
2018-05-21T02:15:03.705Z,102303.48
2018-05-21T02:15:25.239Z,102301.39
2018-05-21T02:15:46.771Z,102301.32
2018-05-21T02:16:08.324Z,102305.27
2018-05-21T02:16:29.927Z,102303.48
2018-05-21T02:16:51.461Z,102304.34
2018-05-21T02:17:12.983Z,102303.02
2018-05-21T02:17:34.523Z,102303.95
2018-05-21T02:17:56.043Z,102306.50
2018-05-21T02:18:17.573Z,102299.28
2018-05-21T02:18:39.159Z,102300.39
2018-05-21T02:19:00.693Z,102303.02
2018-05-21T02:19:22.219Z,102306.78
2018-05-21T02:19:43.755Z,102303.61
2018-05-21T02:20:05.377Z,102305.78
2018-05-21T02:20:26.865Z,102301.77
2018-05-21T02:20:48.400Z,102303.00
2018-05-21T02:21:09.939Z,102309.18
2018-05-21T02:21:31.485Z,102303.84
2018-05-21T02:21:53.016Z,102303.00
2018-05-21T02:22:14.524Z,102297.28
2018-05-21T02:22:36.056Z,102301.22
2018-05-21T02:22:57.599Z,102301.22
2018-05-21T02:23:19.120Z,102298.52
2018-05-21T02:23:40.637Z,102296.36
2018-05-21T02:24:02.152Z,102305.09
2018-05-21T02:24:23.667Z,102300.69
2018-05-21T02:24:45.194Z,102297.98
2018-05-21T02:25:06.735Z,102302.45
2018-05-21T02:25:28.247Z,102303.23
2018-05-21T02:25:49.758Z,102300.22
2018-05-21T02:26:11.288Z,102301.07
2018-05-21T02:26:32.806Z,102301.84
2018-05-21T02:26:54.370Z,102302.77
2018-05-21T02:27:15.861Z,102302.23
2018-05-21T02:27:37.409Z,102306.17
2018-05-21T02:27:58.920Z,102302.62
2018-05-21T02:28:20.423Z,102305.64
2018-05-21T02:28:41.955Z,102303.94
2018-05-21T02:29:03.516Z,102302.23
2018-05-21T02:29:25.057Z,102301.30
2018-05-21T02:29:46.559Z,102297.83
2018-05-21T02:30:08.188Z,102303.40
2018-05-21T02:30:29.644Z,102303.47
2018-05-21T02:30:51.905Z,102303.94
2018-05-21T02:31:13.425Z,102300.30
2018-05-21T02:31:34.940Z,102302.16
2018-05-21T02:31:56.464Z,102301.30
2018-05-21T02:32:17.987Z,102301.70
2018-05-21T02:32:39.510Z,102299.92
2018-05-21T02:33:01.033Z,102302.08
2018-05-21T02:33:22.560Z,102300.77
2018-05-21T02:33:44.077Z,102302.94
2018-05-21T02:34:05.594Z,102302.08
2018-05-21T02:34:27.121Z,102305.56
2018-05-21T02:34:48.691Z,102306.95
2018-05-21T02:35:10.272Z,102299.92
2018-05-21T02:35:31.791Z,102301.70
2018-05-21T02:35:53.311Z,102306.48
2018-05-21T02:36:14.894Z,102299.84
2018-05-21T02:36:36.421Z,102300.30
2018-05-21T02:36:57.946Z,102296.75
2018-05-21T02:37:19.482Z,102301.55
2018-05-21T02:37:41.008Z,102299.84
2018-05-21T02:38:02.521Z,102298.99
2018-05-21T02:38:24.115Z,102296.22
2018-05-21T02:38:45.735Z,102299.30
2018-05-21T02:39:07.249Z,102301.93
2018-05-21T02:39:28.765Z,102301.55
2018-05-21T02:39:50.284Z,102302.78
2018-05-21T02:40:11.834Z,102305.41
2018-05-21T02:40:33.368Z,102302.25
2018-05-21T02:40:54.884Z,102298.30
2018-05-21T02:41:16.452Z,102302.25
2018-05-21T02:41:37.970Z,102301.00
2018-05-21T02:41:59.484Z,102304.02
2018-05-21T02:42:20.991Z,102301.31
2018-05-21T02:42:42.533Z,102303.09
2018-05-21T02:43:04.053Z,102299.54
2018-05-21T02:43:25.576Z,102306.11
2018-05-21T02:43:47.109Z,102300.93
2018-05-21T02:44:08.645Z,102302.63
2018-05-21T02:44:30.176Z,102306.57
2018-05-21T02:44:51.695Z,102302.25
2018-05-21T02:45:13.229Z,102304.80
2018-05-21T02:45:34.790Z,102302.25
2018-05-21T02:45:56.295Z,102301.31
2018-05-21T02:46:17.838Z,102301.24
2018-05-21T02:46:39.363Z,102302.17
2018-05-21T02:47:00.885Z,102303.95
2018-05-21T02:47:22.410Z,102302.55
2018-05-21T02:47:43.937Z,102303.41
2018-05-21T02:48:05.472Z,102305.19
2018-05-21T02:48:27.051Z,102301.24
2018-05-21T02:48:48.580Z,102302.09
2018-05-21T02:49:10.111Z,102304.33
2018-05-21T02:49:31.641Z,102303.76
2018-05-21T02:49:53.162Z,102300.67
2018-05-21T02:50:14.700Z,102302.38
2018-05-21T02:50:36.220Z,102297.69
2018-05-21T02:50:57.727Z,102300.67
2018-05-21T02:51:19.250Z,102301.83
2018-05-21T02:51:40.759Z,102293.17
2018-05-21T02:52:02.267Z,102297.97
2018-05-21T02:52:23.818Z,102295.80
2018-05-21T02:52:45.335Z,102299.36
2018-05-21T02:53:06.847Z,102298.42
2018-05-21T02:53:28.370Z,102301.44
2018-05-21T02:53:49.892Z,102295.34
2018-05-21T02:54:11.426Z,102297.97
2018-05-21T02:54:32.952Z,102292.56
2018-05-21T02:54:54.465Z,102293.48
2018-05-21T02:55:16.008Z,102292.17
2018-05-21T02:55:37.515Z,102298.35
2018-05-21T02:55:59.045Z,102298.81
2018-05-21T02:56:20.648Z,102292.25
2018-05-21T02:56:42.172Z,102298.20
2018-05-21T02:57:03.696Z,102296.50
2018-05-21T02:57:25.221Z,102295.19
2018-05-21T02:57:46.742Z,102292.48
2018-05-21T02:58:08.260Z,102292.09
2018-05-21T02:58:29.763Z,102297.89
2018-05-21T02:58:51.279Z,102292.09
2018-05-21T02:59:12.805Z,102298.20
2018-05-21T02:59:34.335Z,102295.11
2018-05-21T02:59:55.853Z,102291.56
2018-05-21T03:00:17.399Z,102299.52
2018-05-21T03:00:38.921Z,102291.17
2018-05-21T03:01:00.497Z,102289.39
2018-05-21T03:01:22.016Z,102293.26
2018-05-21T03:01:43.530Z,102291.95
2018-05-21T03:02:05.111Z,102290.63
2018-05-21T03:02:26.647Z,102286.23
2018-05-21T03:02:48.163Z,102292.80
2018-05-21T03:03:09.680Z,102289.23
2018-05-21T03:03:31.205Z,102287.47
2018-05-21T03:03:52.720Z,102291.41
2018-05-21T03:04:14.264Z,102285.77
2018-05-21T03:04:35.779Z,102287.08
2018-05-21T03:04:57.290Z,102290.17
2018-05-21T03:05:18.826Z,102287.47
2018-05-21T03:05:40.343Z,102285.69
2018-05-21T03:06:01.860Z,102291.48
2018-05-21T03:06:23.378Z,102283.91
2018-05-21T03:06:44.893Z,102287.85
2018-05-21T03:07:06.413Z,102286.16
2018-05-21T03:07:27.935Z,102284.30
2018-05-21T03:07:49.447Z,102284.77
2018-05-21T03:08:10.964Z,102285.22
2018-05-21T03:08:32.487Z,102282.14
2018-05-21T03:08:53.990Z,102282.91
2018-05-21T03:09:15.491Z,102283.45
2018-05-21T03:09:37.048Z,102286.54
2018-05-21T03:09:58.559Z,102280.82
2018-05-21T03:10:20.086Z,102285.53
2018-05-21T03:10:41.620Z,102279.89
2018-05-21T03:11:03.175Z,102283.45
2018-05-21T03:11:24.696Z,102284.30
2018-05-21T03:11:46.209Z,102282.91
2018-05-21T03:12:07.749Z,102283.38
2018-05-21T03:12:29.263Z,102281.20
2018-05-21T03:12:50.765Z,102279.43
2018-05-21T03:13:12.297Z,102282.45
2018-05-21T03:13:33.813Z,102281.98
2018-05-21T03:13:55.332Z,102283.69
2018-05-21T03:14:16.851Z,102286.84
2018-05-21T03:14:38.378Z,102283.22
2018-05-21T03:14:59.891Z,102278.89
2018-05-21T03:15:21.452Z,102279.75
2018-05-21T03:15:42.978Z,102278.89
2018-05-21T03:16:04.511Z,102281.45
2018-05-21T03:16:26.086Z,102277.58
2018-05-21T03:16:47.601Z,102280.59
2018-05-21T03:17:09.125Z,102281.13
2018-05-21T03:17:30.655Z,102281.98
2018-05-21T03:17:52.191Z,102280.13
2018-05-21T03:18:13.711Z,102281.45
2018-05-21T03:18:35.229Z,102279.20
2018-05-21T03:18:56.773Z,102279.59
2018-05-21T03:19:18.279Z,102281.76
2018-05-21T03:19:39.786Z,102275.73
2018-05-21T03:20:01.320Z,102281.30
2018-05-21T03:20:22.867Z,102279.91
2018-05-21T03:20:44.398Z,102276.42
2018-05-21T03:21:05.929Z,102278.20
2018-05-21T03:21:27.454Z,102277.74
2018-05-21T03:21:48.955Z,102277.20
2018-05-21T03:22:10.467Z,102279.98
2018-05-21T03:22:31.975Z,102277.74
2018-05-21T03:22:53.523Z,102280.37
2018-05-21T03:23:15.061Z,102274.65
2018-05-21T03:23:36.580Z,102271.95
2018-05-21T03:23:58.112Z,102274.96
2018-05-21T03:24:19.645Z,102278.52
2018-05-21T03:24:41.153Z,102274.11
2018-05-21T03:25:02.689Z,102276.73
2018-05-21T03:25:24.254Z,102279.37
2018-05-21T03:25:45.763Z,102274.85
2018-05-21T03:26:07.299Z,102279.75
2018-05-21T03:26:28.825Z,102272.34
2018-05-21T03:26:50.348Z,102271.88
2018-05-21T03:27:11.854Z,102274.96
2018-05-21T03:27:33.383Z,102276.63
2018-05-21T03:27:54.887Z,102277.48
2018-05-21T03:28:16.401Z,102275.81
2018-05-21T03:28:37.921Z,102273.08
2018-05-21T03:28:59.447Z,102272.69
2018-05-21T03:29:20.957Z,102274.39
2018-05-21T03:29:42.479Z,102277.02
2018-05-21T03:30:04.016Z,102269.06
2018-05-21T03:30:25.597Z,102274.77
2018-05-21T03:30:47.120Z,102273.46
2018-05-21T03:31:08.633Z,102273.00
2018-05-21T03:31:30.169Z,102267.67
2018-05-21T03:31:51.692Z,102269.45
2018-05-21T03:32:13.213Z,102266.05
2018-05-21T03:32:34.748Z,102266.44
2018-05-21T03:32:56.282Z,102265.51
2018-05-21T03:33:17.808Z,102267.28
2018-05-21T03:33:39.333Z,102265.58
2018-05-21T03:34:00.861Z,102262.88
2018-05-21T03:34:22.388Z,102268.13
2018-05-21T03:34:43.909Z,102268.98
2018-05-21T03:35:05.426Z,102267.20
2018-05-21T03:35:26.982Z,102266.74
2018-05-21T03:35:48.492Z,102270.30
2018-05-21T03:36:10.015Z,102271.07
2018-05-21T03:36:31.556Z,102264.50
2018-05-21T03:36:53.080Z,102267.98
2018-05-21T03:37:14.587Z,102267.52
2018-05-21T03:37:36.117Z,102272.38
2018-05-21T03:37:57.648Z,102276.33
2018-05-21T03:38:19.166Z,102266.59
2018-05-21T03:38:40.698Z,102269.76
2018-05-21T03:39:02.231Z,102267.52
2018-05-21T03:39:23.875Z,102267.05
2018-05-21T03:39:45.383Z,102270.14
2018-05-21T03:40:06.891Z,102271.00
2018-05-21T03:40:28.441Z,102271.92
2018-05-21T03:40:49.960Z,102268.75
2018-05-21T03:41:11.493Z,102272.31
2018-05-21T03:41:33.038Z,102274.55
2018-05-21T03:41:54.564Z,102271.00
2018-05-21T03:42:16.080Z,102271.38
2018-05-21T03:42:37.592Z,102266.98
2018-05-21T03:42:59.117Z,102270.07
2018-05-21T03:43:20.631Z,102274.78
2018-05-21T03:43:42.167Z,102270.37
2018-05-21T03:44:03.696Z,102273.08
2018-05-21T03:44:25.213Z,102275.33
2018-05-21T03:44:46.747Z,102271.31
2018-05-21T03:45:08.292Z,102272.16
2018-05-21T03:45:29.859Z,102269.53
2018-05-21T03:45:51.404Z,102270.37
2018-05-21T03:46:12.919Z,102276.95
2018-05-21T03:46:34.422Z,102278.72
2018-05-21T03:46:55.948Z,102270.77
2018-05-21T03:47:17.475Z,102275.17
2018-05-21T03:47:38.990Z,102280.03
2018-05-21T03:48:00.523Z,102276.48
2018-05-21T03:48:22.069Z,102271.62
2018-05-21T03:48:43.610Z,102277.34
2018-05-21T03:49:05.138Z,102272.55
2018-05-21T03:49:26.673Z,102271.62
2018-05-21T03:49:48.208Z,102270.30
2018-05-21T03:50:09.736Z,102280.81
2018-05-21T03:50:31.284Z,102280.81
2018-05-21T03:50:52.801Z,102276.88
2018-05-21T03:51:14.328Z,102277.72
2018-05-21T03:51:35.855Z,102279.03
2018-05-21T03:51:57.376Z,102272.94
2018-05-21T03:52:18.909Z,102275.09
2018-05-21T03:52:40.430Z,102273.78
2018-05-21T03:53:01.961Z,102277.34
2018-05-21T03:53:23.474Z,102280.34
2018-05-21T03:53:45.000Z,102283.91
2018-05-21T03:54:06.510Z,102279.03
2018-05-21T03:54:28.032Z,102275.95
2018-05-21T03:54:49.577Z,102277.26
2018-05-21T03:55:11.100Z,102275.95
2018-05-21T03:55:32.643Z,102282.05
2018-05-21T03:55:54.166Z,102277.72
2018-05-21T03:56:15.784Z,102279.34
2018-05-21T03:56:37.405Z,102287.30
2018-05-21T03:56:58.997Z,102279.34
2018-05-21T03:57:20.451Z,102278.96
2018-05-21T03:57:41.996Z,102281.05
2018-05-21T03:58:03.511Z,102285.45
2018-05-21T03:58:25.040Z,102280.20
2018-05-21T03:58:46.547Z,102281.97
2018-05-21T03:59:08.077Z,102277.95
2018-05-21T03:59:29.627Z,102284.98
2018-05-21T03:59:51.159Z,102282.36
2018-05-21T04:00:12.705Z,102276.18
2018-05-21T04:00:36.079Z,102278.34
2018-05-21T04:01:00.518Z,102280.13
2018-05-21T04:01:22.407Z,102284.98
2018-05-21T04:01:43.929Z,102284.06
2018-05-21T04:02:05.470Z,102282.67
2018-05-21T04:02:26.997Z,102285.77
2018-05-21T04:02:48.515Z,102287.15
2018-05-21T04:03:10.033Z,102287.61
2018-05-21T04:03:31.554Z,102283.13
2018-05-21T04:03:53.093Z,102284.91
2018-05-21T04:04:14.620Z,102287.08
2018-05-21T04:04:36.201Z,102287.92
2018-05-21T04:04:57.694Z,102294.02
2018-05-21T04:05:19.203Z,102283.52
2018-05-21T04:06:14.103Z,102290.09
2018-05-21T04:06:35.624Z,102290.47